sensor_id;sensor_type;location;lat;lon;timestamp;temperature;humidity
2867;DHT22;1441;48.886;8.728;2023-03-12T00:00:01;-0.10;93.10
2867;DHT22;1441;48.886;8.728;2023-03-12T00:02:29;-0.20;94.50
2867;DHT22;1441;48.886;8.728;2023-03-12T00:04:54;-0.30;95.40
2867;DHT22;1441;48.886;8.728;2023-03-12T00:07:20;-0.20;94.30
2867;DHT22;1441;48.886;8.728;2023-03-12T00:09:45;-0.30;94.60
2867;DHT22;1441;48.886;8.728;2023-03-12T00:12:11;-0.30;94.60
2867;DHT22;1441;48.886;8.728;2023-03-12T00:14:36;-0.40;94.90
2867;DHT22;1441;48.886;8.728;2023-03-12T00:17:02;-0.40;95.80
2867;DHT22;1441;48.886;8.728;2023-03-12T00:19:28;-0.40;95.20
2867;DHT22;1441;48.886;8.728;2023-03-12T00:21:54;-0.30;95.00
2867;DHT22;1441;48.886;8.728;2023-03-12T00:24:19;-0.30;94.90
2867;DHT22;1441;48.886;8.728;2023-03-12T00:26:45;-0.30;95.10
2867;DHT22;1441;48.886;8.728;2023-03-12T00:29:10;-0.40;94.90
2867;DHT22;1441;48.886;8.728;2023-03-12T00:31:36;-0.40;95.00
2867;DHT22;1441;48.886;8.728;2023-03-12T00:34:02;-0.40;95.20
2867;DHT22;1441;48.886;8.728;2023-03-12T00:36:30;-0.20;95.00
2867;DHT22;1441;48.886;8.728;2023-03-12T00:38:57;-0.10;94.20
2867;DHT22;1441;48.886;8.728;2023-03-12T00:41:24;-0.10;93.60
2867;DHT22;1441;48.886;8.728;2023-03-12T00:43:50;-0.20;94.60
2867;DHT22;1441;48.886;8.728;2023-03-12T00:46:17;-0.30;95.10
2867;DHT22;1441;48.886;8.728;2023-03-12T00:48:43;-0.30;95.70
2867;DHT22;1441;48.886;8.728;2023-03-12T00:51:09;-0.30;95.80
2867;DHT22;1441;48.886;8.728;2023-03-12T00:53:35;-0.30;96.00
2867;DHT22;1441;48.886;8.728;2023-03-12T00:56:02;-0.30;95.70
2867;DHT22;1441;48.886;8.728;2023-03-12T00:58:28;-0.30;96.40
2867;DHT22;1441;48.886;8.728;2023-03-12T01:00:54;-0.20;96.40
2867;DHT22;1441;48.886;8.728;2023-03-12T01:03:20;-0.30;96.30
2867;DHT22;1441;48.886;8.728;2023-03-12T01:05:45;-0.20;95.80
2867;DHT22;1441;48.886;8.728;2023-03-12T01:08:11;0.00;95.30
2867;DHT22;1441;48.886;8.728;2023-03-12T01:10:41;0.00;95.20
2867;DHT22;1441;48.886;8.728;2023-03-12T01:13:07;0.00;95.90
2867;DHT22;1441;48.886;8.728;2023-03-12T01:15:33;0.00;96.60
2867;DHT22;1441;48.886;8.728;2023-03-12T01:17:58;0.00;96.90
2867;DHT22;1441;48.886;8.728;2023-03-12T01:20:24;0.00;97.40
2867;DHT22;1441;48.886;8.728;2023-03-12T01:22:50;0.00;97.20
2867;DHT22;1441;48.886;8.728;2023-03-12T01:25:16;0.00;97.30
2867;DHT22;1441;48.886;8.728;2023-03-12T01:27:41;-0.10;97.50
2867;DHT22;1441;48.886;8.728;2023-03-12T01:30:07;0.00;97.40
2867;DHT22;1441;48.886;8.728;2023-03-12T01:32:33;0.10;96.40
2867;DHT22;1441;48.886;8.728;2023-03-12T01:34:59;0.10;96.20
2867;DHT22;1441;48.886;8.728;2023-03-12T01:37:26;0.00;96.40
2867;DHT22;1441;48.886;8.728;2023-03-12T01:39:52;0.00;97.40
2867;DHT22;1441;48.886;8.728;2023-03-12T01:42:17;0.10;97.60
2867;DHT22;1441;48.886;8.728;2023-03-12T01:45:01;0.10;97.10
2867;DHT22;1441;48.886;8.728;2023-03-12T01:47:28;0.10;97.30
2867;DHT22;1441;48.886;8.728;2023-03-12T01:49:57;0.10;96.70
2867;DHT22;1441;48.886;8.728;2023-03-12T01:52:27;0.10;97.20
2867;DHT22;1441;48.886;8.728;2023-03-12T01:57:42;0.00;97.80
2867;DHT22;1441;48.886;8.728;2023-03-12T02:00:15;0.10;97.10
2867;DHT22;1441;48.886;8.728;2023-03-12T02:02:43;0.10;96.90
2867;DHT22;1441;48.886;8.728;2023-03-12T02:07:47;0.20;95.80
2867;DHT22;1441;48.886;8.728;2023-03-12T02:10:13;0.30;95.80
2867;DHT22;1441;48.886;8.728;2023-03-12T02:12:39;0.20;95.90
2867;DHT22;1441;48.886;8.728;2023-03-12T02:15:05;0.10;96.50
2867;DHT22;1441;48.886;8.728;2023-03-12T02:17:31;0.10;97.00
2867;DHT22;1441;48.886;8.728;2023-03-12T02:20:34;0.10;96.80
2867;DHT22;1441;48.886;8.728;2023-03-12T02:23:29;0.10;96.00
2867;DHT22;1441;48.886;8.728;2023-03-12T02:25:55;0.10;96.00
2867;DHT22;1441;48.886;8.728;2023-03-12T02:28:24;0.00;96.60
2867;DHT22;1441;48.886;8.728;2023-03-12T02:30:55;-0.10;97.80
2867;DHT22;1441;48.886;8.728;2023-03-12T02:33:21;-0.10;97.50
2867;DHT22;1441;48.886;8.728;2023-03-12T02:35:47;-0.10;97.70
2867;DHT22;1441;48.886;8.728;2023-03-12T02:38:53;0.00;97.30
2867;DHT22;1441;48.886;8.728;2023-03-12T02:41:26;-0.10;96.70
2867;DHT22;1441;48.886;8.728;2023-03-12T02:44:02;0.00;96.70
2867;DHT22;1441;48.886;8.728;2023-03-12T02:46:36;-0.10;96.70
2867;DHT22;1441;48.886;8.728;2023-03-12T02:49:03;0.00;96.60
2867;DHT22;1441;48.886;8.728;2023-03-12T02:51:29;0.00;96.70
2867;DHT22;1441;48.886;8.728;2023-03-12T02:53:55;0.00;96.70
2867;DHT22;1441;48.886;8.728;2023-03-12T02:56:22;0.10;96.60
2867;DHT22;1441;48.886;8.728;2023-03-12T02:58:48;0.20;97.10
2867;DHT22;1441;48.886;8.728;2023-03-12T03:01:15;0.20;96.90
2867;DHT22;1441;48.886;8.728;2023-03-12T03:03:40;0.30;96.30
2867;DHT22;1441;48.886;8.728;2023-03-12T03:06:06;0.30;96.20
2867;DHT22;1441;48.886;8.728;2023-03-12T03:08:31;0.30;95.80
2867;DHT22;1441;48.886;8.728;2023-03-12T03:10:57;0.20;96.30
2867;DHT22;1441;48.886;8.728;2023-03-12T03:13:23;0.30;96.90
2867;DHT22;1441;48.886;8.728;2023-03-12T03:15:48;0.30;97.60
2867;DHT22;1441;48.886;8.728;2023-03-12T03:18:14;0.30;97.70
2867;DHT22;1441;48.886;8.728;2023-03-12T03:20:40;0.40;97.40
2867;DHT22;1441;48.886;8.728;2023-03-12T03:23:05;0.40;97.70
2867;DHT22;1441;48.886;8.728;2023-03-12T03:25:32;0.40;98.30
2867;DHT22;1441;48.886;8.728;2023-03-12T03:27:57;0.40;98.00
2867;DHT22;1441;48.886;8.728;2023-03-12T03:30:23;0.50;97.40
2867;DHT22;1441;48.886;8.728;2023-03-12T03:32:48;0.50;97.60
2867;DHT22;1441;48.886;8.728;2023-03-12T03:35:14;0.60;97.30
2867;DHT22;1441;48.886;8.728;2023-03-12T03:37:40;0.60;97.80
2867;DHT22;1441;48.886;8.728;2023-03-12T03:40:06;0.70;97.30
2867;DHT22;1441;48.886;8.728;2023-03-12T03:42:36;1.00;96.00
2867;DHT22;1441;48.886;8.728;2023-03-12T03:45:01;1.20;94.50
2867;DHT22;1441;48.886;8.728;2023-03-12T03:47:27;1.30;94.40
2867;DHT22;1441;48.886;8.728;2023-03-12T03:49:53;1.20;94.50
2867;DHT22;1441;48.886;8.728;2023-03-12T03:52:18;1.00;96.40
2867;DHT22;1441;48.886;8.728;2023-03-12T03:54:44;0.80;97.10
2867;DHT22;1441;48.886;8.728;2023-03-12T03:57:09;0.80;97.30
2867;DHT22;1441;48.886;8.728;2023-03-12T03:59:35;0.80;97.70
2867;DHT22;1441;48.886;8.728;2023-03-12T04:02:00;0.70;97.60
2867;DHT22;1441;48.886;8.728;2023-03-12T04:04:26;0.70;97.60
2867;DHT22;1441;48.886;8.728;2023-03-12T04:06:53;0.70;97.60
2867;DHT22;1441;48.886;8.728;2023-03-12T04:09:18;0.70;97.90
2867;DHT22;1441;48.886;8.728;2023-03-12T04:11:44;0.70;98.10
2867;DHT22;1441;48.886;8.728;2023-03-12T04:14:09;0.70;97.30
2867;DHT22;1441;48.886;8.728;2023-03-12T04:16:35;0.70;97.60
2867;DHT22;1441;48.886;8.728;2023-03-12T04:19:00;0.70;97.80
2867;DHT22;1441;48.886;8.728;2023-03-12T04:21:26;0.70;97.80
2867;DHT22;1441;48.886;8.728;2023-03-12T04:23:51;0.70;97.70
2867;DHT22;1441;48.886;8.728;2023-03-12T04:26:17;0.70;96.60
2867;DHT22;1441;48.886;8.728;2023-03-12T04:28:43;0.90;96.00
2867;DHT22;1441;48.886;8.728;2023-03-12T04:31:10;1.00;95.20
2867;DHT22;1441;48.886;8.728;2023-03-12T04:33:37;0.90;96.40
2867;DHT22;1441;48.886;8.728;2023-03-12T04:36:03;0.80;98.10
2867;DHT22;1441;48.886;8.728;2023-03-12T04:38:30;0.80;98.70
2867;DHT22;1441;48.886;8.728;2023-03-12T04:40:59;0.70;99.00
2867;DHT22;1441;48.886;8.728;2023-03-12T04:43:26;0.80;98.90
2867;DHT22;1441;48.886;8.728;2023-03-12T04:45:52;0.80;98.80
2867;DHT22;1441;48.886;8.728;2023-03-12T04:48:17;0.80;99.10
2867;DHT22;1441;48.886;8.728;2023-03-12T04:50:43;0.80;99.00
2867;DHT22;1441;48.886;8.728;2023-03-12T04:53:09;0.80;98.30
2867;DHT22;1441;48.886;8.728;2023-03-12T04:55:35;0.80;98.60
2867;DHT22;1441;48.886;8.728;2023-03-12T04:58:00;0.80;98.00
2867;DHT22;1441;48.886;8.728;2023-03-12T05:00:26;0.90;97.60
2867;DHT22;1441;48.886;8.728;2023-03-12T05:02:52;0.90;97.60
2867;DHT22;1441;48.886;8.728;2023-03-12T05:05:17;1.00;97.50
2867;DHT22;1441;48.886;8.728;2023-03-12T05:07:43;1.00;97.50
2867;DHT22;1441;48.886;8.728;2023-03-12T05:10:09;1.10;97.90
2867;DHT22;1441;48.886;8.728;2023-03-12T05:12:34;1.10;98.10
2867;DHT22;1441;48.886;8.728;2023-03-12T05:15:00;1.10;97.60
2867;DHT22;1441;48.886;8.728;2023-03-12T05:17:26;1.10;97.40
2867;DHT22;1441;48.886;8.728;2023-03-12T05:19:51;1.10;98.40
2867;DHT22;1441;48.886;8.728;2023-03-12T05:22:17;1.20;98.60
2867;DHT22;1441;48.886;8.728;2023-03-12T05:24:43;1.20;99.70
2867;DHT22;1441;48.886;8.728;2023-03-12T05:27:08;1.20;99.90
2867;DHT22;1441;48.886;8.728;2023-03-12T05:29:34;1.20;99.90
2867;DHT22;1441;48.886;8.728;2023-03-12T05:32:01;1.20;99.90
2867;DHT22;1441;48.886;8.728;2023-03-12T05:34:27;1.50;99.90
2867;DHT22;1441;48.886;8.728;2023-03-12T05:36:55;1.80;98.10
2867;DHT22;1441;48.886;8.728;2023-03-12T05:39:21;1.80;98.80
2867;DHT22;1441;48.886;8.728;2023-03-12T05:41:46;1.60;99.90
2867;DHT22;1441;48.886;8.728;2023-03-12T05:44:12;1.60;99.90
2867;DHT22;1441;48.886;8.728;2023-03-12T05:46:40;1.60;99.90
2867;DHT22;1441;48.886;8.728;2023-03-12T05:49:06;1.70;99.90
2867;DHT22;1441;48.886;8.728;2023-03-12T05:51:32;2.00;99.90
2867;DHT22;1441;48.886;8.728;2023-03-12T05:53:58;2.20;99.90
2867;DHT22;1441;48.886;8.728;2023-03-12T05:56:23;2.40;99.90
2867;DHT22;1441;48.886;8.728;2023-03-12T05:58:50;2.50;99.90
2867;DHT22;1441;48.886;8.728;2023-03-12T06:01:27;2.60;99.90
2867;DHT22;1441;48.886;8.728;2023-03-12T06:03:53;2.70;99.90
2867;DHT22;1441;48.886;8.728;2023-03-12T06:06:19;2.70;99.90
2867;DHT22;1441;48.886;8.728;2023-03-12T06:08:44;2.80;99.90
2867;DHT22;1441;48.886;8.728;2023-03-12T06:11:11;2.80;99.90
2867;DHT22;1441;48.886;8.728;2023-03-12T06:13:38;2.80;99.90
2867;DHT22;1441;48.886;8.728;2023-03-12T06:16:08;2.90;99.90
2867;DHT22;1441;48.886;8.728;2023-03-12T06:18:35;3.00;99.90
2867;DHT22;1441;48.886;8.728;2023-03-12T06:21:19;3.00;99.10
2867;DHT22;1441;48.886;8.728;2023-03-12T06:23:46;3.00;99.10
2867;DHT22;1441;48.886;8.728;2023-03-12T06:26:13;3.10;98.80
2867;DHT22;1441;48.886;8.728;2023-03-12T06:28:38;3.10;98.60
2867;DHT22;1441;48.886;8.728;2023-03-12T06:31:05;2.90;99.40
2867;DHT22;1441;48.886;8.728;2023-03-12T06:33:31;2.90;99.60
2867;DHT22;1441;48.886;8.728;2023-03-12T06:35:58;3.10;99.00
2867;DHT22;1441;48.886;8.728;2023-03-12T06:38:25;3.10;98.70
2867;DHT22;1441;48.886;8.728;2023-03-12T06:43:20;3.10;98.90
2867;DHT22;1441;48.886;8.728;2023-03-12T06:45:45;3.20;99.00
2867;DHT22;1441;48.886;8.728;2023-03-12T06:48:11;3.10;99.90
2867;DHT22;1441;48.886;8.728;2023-03-12T06:50:36;3.10;99.90
2867;DHT22;1441;48.886;8.728;2023-03-12T06:53:02;3.30;99.90
2867;DHT22;1441;48.886;8.728;2023-03-12T06:55:27;3.30;99.20
2867;DHT22;1441;48.886;8.728;2023-03-12T06:57:53;3.30;99.30
2867;DHT22;1441;48.886;8.728;2023-03-12T07:00:19;3.30;99.60
2867;DHT22;1441;48.886;8.728;2023-03-12T07:02:44;3.40;99.30
2867;DHT22;1441;48.886;8.728;2023-03-12T07:05:10;3.40;99.40
2867;DHT22;1441;48.886;8.728;2023-03-12T07:07:36;3.20;99.90
2867;DHT22;1441;48.886;8.728;2023-03-12T07:10:03;3.30;99.90
2867;DHT22;1441;48.886;8.728;2023-03-12T07:12:31;3.20;99.90
2867;DHT22;1441;48.886;8.728;2023-03-12T07:14:56;3.10;99.90
2867;DHT22;1441;48.886;8.728;2023-03-12T07:17:23;3.10;99.90
2867;DHT22;1441;48.886;8.728;2023-03-12T07:19:50;3.20;99.90
2867;DHT22;1441;48.886;8.728;2023-03-12T07:22:16;3.50;99.90
2867;DHT22;1441;48.886;8.728;2023-03-12T07:24:41;3.70;99.90
2867;DHT22;1441;48.886;8.728;2023-03-12T07:27:07;3.90;99.60
2867;DHT22;1441;48.886;8.728;2023-03-12T07:29:32;3.90;99.90
2867;DHT22;1441;48.886;8.728;2023-03-12T07:31:58;3.90;99.80
2867;DHT22;1441;48.886;8.728;2023-03-12T07:34:24;3.80;99.80
2867;DHT22;1441;48.886;8.728;2023-03-12T07:36:49;3.80;99.90
2867;DHT22;1441;48.886;8.728;2023-03-12T07:39:15;4.00;99.90
2867;DHT22;1441;48.886;8.728;2023-03-12T07:41:40;3.90;99.90
2867;DHT22;1441;48.886;8.728;2023-03-12T07:44:06;4.00;99.90
2867;DHT22;1441;48.886;8.728;2023-03-12T07:46:32;4.00;99.90
2867;DHT22;1441;48.886;8.728;2023-03-12T07:48:58;3.80;99.90
2867;DHT22;1441;48.886;8.728;2023-03-12T07:51:23;3.90;99.90
2867;DHT22;1441;48.886;8.728;2023-03-12T07:53:49;4.00;99.90
2867;DHT22;1441;48.886;8.728;2023-03-12T07:56:14;4.00;99.90
2867;DHT22;1441;48.886;8.728;2023-03-12T07:58:40;3.80;99.90
2867;DHT22;1441;48.886;8.728;2023-03-12T08:01:06;3.80;99.90
2867;DHT22;1441;48.886;8.728;2023-03-12T08:03:32;4.10;99.90
2867;DHT22;1441;48.886;8.728;2023-03-12T08:06:00;4.10;99.90
2867;DHT22;1441;48.886;8.728;2023-03-12T08:08:27;3.90;99.90
2867;DHT22;1441;48.886;8.728;2023-03-12T08:10:53;4.10;99.90
2867;DHT22;1441;48.886;8.728;2023-03-12T08:13:18;4.00;99.90
2867;DHT22;1441;48.886;8.728;2023-03-12T08:15:44;4.00;99.90
2867;DHT22;1441;48.886;8.728;2023-03-12T08:18:09;3.90;99.90
2867;DHT22;1441;48.886;8.728;2023-03-12T08:20:35;4.20;99.90
2867;DHT22;1441;48.886;8.728;2023-03-12T08:23:01;4.10;99.90
2867;DHT22;1441;48.886;8.728;2023-03-12T08:25:26;3.90;99.90
2867;DHT22;1441;48.886;8.728;2023-03-12T08:27:53;3.90;99.90
2867;DHT22;1441;48.886;8.728;2023-03-12T08:30:19;3.90;99.90
2867;DHT22;1441;48.886;8.728;2023-03-12T08:32:45;3.90;99.90
2867;DHT22;1441;48.886;8.728;2023-03-12T08:35:11;4.10;99.90
2867;DHT22;1441;48.886;8.728;2023-03-12T08:37:36;4.10;99.90
2867;DHT22;1441;48.886;8.728;2023-03-12T08:40:02;4.30;99.90
2867;DHT22;1441;48.886;8.728;2023-03-12T08:42:38;4.30;99.90
2867;DHT22;1441;48.886;8.728;2023-03-12T08:45:04;4.30;99.90
2867;DHT22;1441;48.886;8.728;2023-03-12T08:47:29;4.20;99.90
2867;DHT22;1441;48.886;8.728;2023-03-12T08:49:55;4.20;99.90
2867;DHT22;1441;48.886;8.728;2023-03-12T08:52:20;4.20;99.90
2867;DHT22;1441;48.886;8.728;2023-03-12T08:54:46;4.10;99.90
2867;DHT22;1441;48.886;8.728;2023-03-12T08:57:12;4.10;99.90
2867;DHT22;1441;48.886;8.728;2023-03-12T08:59:37;4.10;99.90
2867;DHT22;1441;48.886;8.728;2023-03-12T09:02:03;4.20;99.90
2867;DHT22;1441;48.886;8.728;2023-03-12T09:04:29;4.20;99.90
2867;DHT22;1441;48.886;8.728;2023-03-12T09:06:55;4.20;99.90
2867;DHT22;1441;48.886;8.728;2023-03-12T09:09:20;4.30;99.90
2867;DHT22;1441;48.886;8.728;2023-03-12T09:11:46;4.30;99.90
2867;DHT22;1441;48.886;8.728;2023-03-12T09:14:11;4.40;99.90
2867;DHT22;1441;48.886;8.728;2023-03-12T09:16:37;4.30;99.90
2867;DHT22;1441;48.886;8.728;2023-03-12T09:19:03;4.40;99.90
2867;DHT22;1441;48.886;8.728;2023-03-12T09:21:29;4.60;99.90
2867;DHT22;1441;48.886;8.728;2023-03-12T09:23:54;4.70;99.90
2867;DHT22;1441;48.886;8.728;2023-03-12T09:26:20;4.80;99.90
2867;DHT22;1441;48.886;8.728;2023-03-12T09:28:46;4.70;99.90
2867;DHT22;1441;48.886;8.728;2023-03-12T09:31:11;4.90;99.90
2867;DHT22;1441;48.886;8.728;2023-03-12T09:33:37;5.10;99.90
2867;DHT22;1441;48.886;8.728;2023-03-12T09:36:03;5.40;99.90
2867;DHT22;1441;48.886;8.728;2023-03-12T09:38:29;5.70;99.90
2867;DHT22;1441;48.886;8.728;2023-03-12T09:40:57;5.70;99.90
2867;DHT22;1441;48.886;8.728;2023-03-12T09:44:35;5.50;99.90
2867;DHT22;1441;48.886;8.728;2023-03-12T09:46:50;5.50;99.90
2867;DHT22;1441;48.886;8.728;2023-03-12T09:49:26;5.60;99.90
2867;DHT22;1441;48.886;8.728;2023-03-12T09:51:56;5.70;99.90
2867;DHT22;1441;48.886;8.728;2023-03-12T09:54:30;5.80;99.90
2867;DHT22;1441;48.886;8.728;2023-03-12T09:57:01;5.90;99.90
2867;DHT22;1441;48.886;8.728;2023-03-12T09:59:27;5.90;99.90
2867;DHT22;1441;48.886;8.728;2023-03-12T10:01:59;6.00;99.90
2867;DHT22;1441;48.886;8.728;2023-03-12T10:04:31;6.00;99.90
2867;DHT22;1441;48.886;8.728;2023-03-12T10:12:54;6.30;99.90
2867;DHT22;1441;48.886;8.728;2023-03-12T10:21:21;6.60;99.90
2867;DHT22;1441;48.886;8.728;2023-03-12T10:24:26;6.60;99.90
2867;DHT22;1441;48.886;8.728;2023-03-12T10:26:53;6.60;99.90
2867;DHT22;1441;48.886;8.728;2023-03-12T10:29:29;6.70;99.90
2867;DHT22;1441;48.886;8.728;2023-03-12T10:31:57;6.80;99.90
2867;DHT22;1441;48.886;8.728;2023-03-12T10:37:33;7.00;99.90
2867;DHT22;1441;48.886;8.728;2023-03-12T10:40:01;7.20;99.90
2867;DHT22;1441;48.886;8.728;2023-03-12T10:42:29;7.30;99.90
2867;DHT22;1441;48.886;8.728;2023-03-12T10:47:38;7.50;99.90
2867;DHT22;1441;48.886;8.728;2023-03-12T10:50:31;7.70;99.90
2867;DHT22;1441;48.886;8.728;2023-03-12T10:56:07;7.80;99.90
2867;DHT22;1441;48.886;8.728;2023-03-12T10:58:45;7.80;99.90
2867;DHT22;1441;48.886;8.728;2023-03-12T11:03:40;8.00;99.90
2867;DHT22;1441;48.886;8.728;2023-03-12T11:06:07;8.10;99.90
2867;DHT22;1441;48.886;8.728;2023-03-12T11:08:36;8.40;99.90
2867;DHT22;1441;48.886;8.728;2023-03-12T11:11:03;8.80;99.90
2867;DHT22;1441;48.886;8.728;2023-03-12T11:15:56;9.10;99.90
2867;DHT22;1441;48.886;8.728;2023-03-12T11:18:26;9.00;99.90
2867;DHT22;1441;48.886;8.728;2023-03-12T11:21:10;9.00;99.90
2867;DHT22;1441;48.886;8.728;2023-03-12T11:23:45;9.00;99.90
2867;DHT22;1441;48.886;8.728;2023-03-12T11:26:19;8.70;99.90
2867;DHT22;1441;48.886;8.728;2023-03-12T11:28:50;8.50;99.90
2867;DHT22;1441;48.886;8.728;2023-03-12T11:31:24;8.60;99.90
2867;DHT22;1441;48.886;8.728;2023-03-12T11:33:53;8.70;99.90
2867;DHT22;1441;48.886;8.728;2023-03-12T11:36:53;8.70;99.90
2867;DHT22;1441;48.886;8.728;2023-03-12T11:39:55;8.90;99.90
2867;DHT22;1441;48.886;8.728;2023-03-12T11:47:58;9.40;99.90
2867;DHT22;1441;48.886;8.728;2023-03-12T11:53:39;9.60;99.90
2867;DHT22;1441;48.886;8.728;2023-03-12T12:06:49;9.70;99.90
2867;DHT22;1441;48.886;8.728;2023-03-12T12:09:22;9.80;99.90
2867;DHT22;1441;48.886;8.728;2023-03-12T12:20:11;9.90;99.90
2867;DHT22;1441;48.886;8.728;2023-03-12T12:22:52;9.90;99.90
2867;DHT22;1441;48.886;8.728;2023-03-12T12:28:06;9.70;99.90
2867;DHT22;1441;48.886;8.728;2023-03-12T12:30:52;9.70;99.90
2867;DHT22;1441;48.886;8.728;2023-03-12T12:35:59;10.00;99.90
2867;DHT22;1441;48.886;8.728;2023-03-12T12:43:40;10.20;99.90
2867;DHT22;1441;48.886;8.728;2023-03-12T12:46:25;10.40;99.90
2867;DHT22;1441;48.886;8.728;2023-03-12T12:51:25;10.30;99.40
2867;DHT22;1441;48.886;8.728;2023-03-12T12:54:16;10.20;99.90
2867;DHT22;1441;48.886;8.728;2023-03-12T12:56:50;10.50;99.80
2867;DHT22;1441;48.886;8.728;2023-03-12T12:59:39;10.70;98.40
2867;DHT22;1441;48.886;8.728;2023-03-12T13:02:20;11.00;97.50
2867;DHT22;1441;48.886;8.728;2023-03-12T13:04:47;11.40;96.80
2867;DHT22;1441;48.886;8.728;2023-03-12T13:09:53;11.20;95.20
2867;DHT22;1441;48.886;8.728;2023-03-12T13:12:41;11.10;95.30
2867;DHT22;1441;48.886;8.728;2023-03-12T13:23:33;11.50;94.50
2867;DHT22;1441;48.886;8.728;2023-03-12T13:26:07;11.60;94.60
2867;DHT22;1441;48.886;8.728;2023-03-12T13:33:56;11.00;96.80
2867;DHT22;1441;48.886;8.728;2023-03-12T13:36:25;10.70;98.10
2867;DHT22;1441;48.886;8.728;2023-03-12T13:44:27;10.40;98.90
2867;DHT22;1441;48.886;8.728;2023-03-12T13:49:57;10.30;99.40
2867;DHT22;1441;48.886;8.728;2023-03-12T13:55:04;10.40;98.90
2867;DHT22;1441;48.886;8.728;2023-03-12T13:57:38;10.60;98.30
2867;DHT22;1441;48.886;8.728;2023-03-12T14:00:30;10.80;97.80
2867;DHT22;1441;48.886;8.728;2023-03-12T14:02:59;11.00;97.10
2867;DHT22;1441;48.886;8.728;2023-03-12T14:05:27;11.20;95.10
2867;DHT22;1441;48.886;8.728;2023-03-12T14:10:43;11.50;92.80
2867;DHT22;1441;48.886;8.728;2023-03-12T14:18:44;11.50;92.40
2867;DHT22;1441;48.886;8.728;2023-03-12T14:21:14;11.60;93.30
2867;DHT22;1441;48.886;8.728;2023-03-12T14:23:46;11.70;91.10
2867;DHT22;1441;48.886;8.728;2023-03-12T14:26:25;12.00;91.30
2867;DHT22;1441;48.886;8.728;2023-03-12T14:29:27;12.50;89.80
2867;DHT22;1441;48.886;8.728;2023-03-12T14:31:56;12.70;87.50
2867;DHT22;1441;48.886;8.728;2023-03-12T14:34:30;12.70;86.20
2867;DHT22;1441;48.886;8.728;2023-03-12T14:37:15;12.60;87.70
2867;DHT22;1441;48.886;8.728;2023-03-12T14:39:54;12.60;87.30
2867;DHT22;1441;48.886;8.728;2023-03-12T14:42:30;12.80;87.70
2867;DHT22;1441;48.886;8.728;2023-03-12T14:45:14;12.70;86.80
2867;DHT22;1441;48.886;8.728;2023-03-12T14:47:47;12.60;86.80
2867;DHT22;1441;48.886;8.728;2023-03-12T14:50:21;12.60;87.40
2867;DHT22;1441;48.886;8.728;2023-03-12T14:52:48;12.40;87.40
2867;DHT22;1441;48.886;8.728;2023-03-12T14:55:20;12.40;88.20
2867;DHT22;1441;48.886;8.728;2023-03-12T14:57:47;12.30;88.90
2867;DHT22;1441;48.886;8.728;2023-03-12T15:00:25;12.30;88.70
2867;DHT22;1441;48.886;8.728;2023-03-12T15:02:52;12.10;88.20
2867;DHT22;1441;48.886;8.728;2023-03-12T15:05:20;11.80;89.10
2867;DHT22;1441;48.886;8.728;2023-03-12T15:07:46;11.80;89.40
2867;DHT22;1441;48.886;8.728;2023-03-12T15:10:24;11.70;89.80
2867;DHT22;1441;48.886;8.728;2023-03-12T15:12:56;11.80;89.80
2867;DHT22;1441;48.886;8.728;2023-03-12T15:15:28;11.70;89.80
2867;DHT22;1441;48.886;8.728;2023-03-12T15:17:56;11.70;89.30
2867;DHT22;1441;48.886;8.728;2023-03-12T15:20:23;11.60;90.30
2867;DHT22;1441;48.886;8.728;2023-03-12T15:22:51;11.60;90.20
2867;DHT22;1441;48.886;8.728;2023-03-12T15:27:47;11.70;90.10
2867;DHT22;1441;48.886;8.728;2023-03-12T15:30:24;11.60;90.10
2867;DHT22;1441;48.886;8.728;2023-03-12T15:33:06;11.70;90.00
2867;DHT22;1441;48.886;8.728;2023-03-12T15:35:33;11.90;89.50
2867;DHT22;1441;48.886;8.728;2023-03-12T15:37:59;11.90;89.40
2867;DHT22;1441;48.886;8.728;2023-03-12T15:40:27;11.80;89.60
2867;DHT22;1441;48.886;8.728;2023-03-12T15:42:54;11.90;88.50
2867;DHT22;1441;48.886;8.728;2023-03-12T15:45:37;11.90;88.20
2867;DHT22;1441;48.886;8.728;2023-03-12T15:48:17;11.80;88.30
2867;DHT22;1441;48.886;8.728;2023-03-12T15:50:44;11.80;88.60
2867;DHT22;1441;48.886;8.728;2023-03-12T15:55:39;11.70;88.20
2867;DHT22;1441;48.886;8.728;2023-03-12T15:58:26;11.60;88.50
2867;DHT22;1441;48.886;8.728;2023-03-12T16:00:52;11.50;88.50
2867;DHT22;1441;48.886;8.728;2023-03-12T16:03:19;11.50;88.60
2867;DHT22;1441;48.886;8.728;2023-03-12T16:05:45;11.50;88.80
2867;DHT22;1441;48.886;8.728;2023-03-12T16:08:19;11.60;88.80
2867;DHT22;1441;48.886;8.728;2023-03-12T16:10:50;11.50;88.50
2867;DHT22;1441;48.886;8.728;2023-03-12T16:13:18;11.50;88.60
2867;DHT22;1441;48.886;8.728;2023-03-12T16:15:44;11.50;88.40
2867;DHT22;1441;48.886;8.728;2023-03-12T16:18:12;11.50;88.20
2867;DHT22;1441;48.886;8.728;2023-03-12T16:20:38;11.50;88.60
2867;DHT22;1441;48.886;8.728;2023-03-12T16:23:04;11.50;87.90
2867;DHT22;1441;48.886;8.728;2023-03-12T16:25:29;11.50;87.70
2867;DHT22;1441;48.886;8.728;2023-03-12T16:27:57;11.40;88.00
2867;DHT22;1441;48.886;8.728;2023-03-12T16:30:27;11.30;88.00
2867;DHT22;1441;48.886;8.728;2023-03-12T16:32:53;11.30;88.10
2867;DHT22;1441;48.886;8.728;2023-03-12T16:35:20;11.30;88.50
2867;DHT22;1441;48.886;8.728;2023-03-12T16:37:46;11.30;88.50
2867;DHT22;1441;48.886;8.728;2023-03-12T16:40:13;11.20;87.90
2867;DHT22;1441;48.886;8.728;2023-03-12T16:42:41;11.20;88.50
2867;DHT22;1441;48.886;8.728;2023-03-12T16:45:10;11.30;88.20
2867;DHT22;1441;48.886;8.728;2023-03-12T16:47:37;11.20;88.40
2867;DHT22;1441;48.886;8.728;2023-03-12T16:50:18;11.20;88.20
2867;DHT22;1441;48.886;8.728;2023-03-12T16:52:44;11.10;88.70
2867;DHT22;1441;48.886;8.728;2023-03-12T16:55:19;11.00;88.80
2867;DHT22;1441;48.886;8.728;2023-03-12T16:57:53;10.90;88.80
2867;DHT22;1441;48.886;8.728;2023-03-12T17:00:24;10.90;88.80
2867;DHT22;1441;48.886;8.728;2023-03-12T17:02:52;10.80;88.60
2867;DHT22;1441;48.886;8.728;2023-03-12T17:05:26;10.90;88.40
2867;DHT22;1441;48.886;8.728;2023-03-12T17:07:52;11.00;87.10
2867;DHT22;1441;48.886;8.728;2023-03-12T17:10:18;11.10;87.20
2867;DHT22;1441;48.886;8.728;2023-03-12T17:12:43;11.20;86.50
2867;DHT22;1441;48.886;8.728;2023-03-12T17:15:17;11.30;86.00
2867;DHT22;1441;48.886;8.728;2023-03-12T17:17:44;11.40;85.90
2867;DHT22;1441;48.886;8.728;2023-03-12T17:20:12;11.40;86.00
2867;DHT22;1441;48.886;8.728;2023-03-12T17:22:39;11.40;86.00
2867;DHT22;1441;48.886;8.728;2023-03-12T17:25:05;11.20;86.80
2867;DHT22;1441;48.886;8.728;2023-03-12T17:27:31;11.10;87.20
2867;DHT22;1441;48.886;8.728;2023-03-12T17:29:57;11.00;87.70
2867;DHT22;1441;48.886;8.728;2023-03-12T17:32:22;10.90;88.30
2867;DHT22;1441;48.886;8.728;2023-03-12T17:34:54;10.80;88.30
2867;DHT22;1441;48.886;8.728;2023-03-12T17:37:20;10.90;87.80
2867;DHT22;1441;48.886;8.728;2023-03-12T17:39:47;11.00;88.00
2867;DHT22;1441;48.886;8.728;2023-03-12T17:42:12;11.10;86.90
2867;DHT22;1441;48.886;8.728;2023-03-12T17:44:38;11.10;87.20
2867;DHT22;1441;48.886;8.728;2023-03-12T17:47:04;11.00;88.30
2867;DHT22;1441;48.886;8.728;2023-03-12T17:49:29;10.90;88.10
2867;DHT22;1441;48.886;8.728;2023-03-12T17:51:55;11.10;87.90
2867;DHT22;1441;48.886;8.728;2023-03-12T17:54:21;11.10;87.20
2867;DHT22;1441;48.886;8.728;2023-03-12T17:56:47;11.10;87.30
2867;DHT22;1441;48.886;8.728;2023-03-12T17:59:12;10.80;88.50
2867;DHT22;1441;48.886;8.728;2023-03-12T18:01:38;10.60;88.70
2867;DHT22;1441;48.886;8.728;2023-03-12T18:04:03;10.50;88.90
2867;DHT22;1441;48.886;8.728;2023-03-12T18:06:29;10.60;88.30
2867;DHT22;1441;48.886;8.728;2023-03-12T18:08:55;10.80;87.60
2867;DHT22;1441;48.886;8.728;2023-03-12T18:11:20;10.70;88.20
2867;DHT22;1441;48.886;8.728;2023-03-12T18:13:46;10.80;87.40
2867;DHT22;1441;48.886;8.728;2023-03-12T18:16:13;10.70;88.30